Time;durP1;ratioP1;P1;durP2;ratioP2;P2;SDS_P1;SDS_P2;PMS_P1;PMS_P2;Temp;Humidity;BMP_temperature;BMP_pressure;BME280_temperature;BME280_humidity;BME280_pressure;Samples;Min_cycle;Max_cycle;Signal;HPM_P1;HPM_P2
2022/03/21 06:00:43;;;;;;;16.73;15.10;;;6.30;97.20;;;;;;1714445;28;20240;-72
2022/03/21 06:01:34;;;;;;;16.98;15.27;;;6.30;97.20;;;;;;1714424;28;20685;-72
2022/03/21 06:02:26;;;;;;;18.13;13.30;;;6.30;97.20;;;;;;1714445;28;20625;-71
2022/03/21 06:03:16;;;;;;;18.02;15.52;;;6.30;97.20;;;;;;1713728;28;20240;-71
2022/03/21 06:04:08;;;;;;;15.23;13.67;;;6.20;97.20;;;;;;1708055;28;20210;-71
2022/03/21 06:05:01;;;;;;;16.60;14.90;;;6.20;97.20;;;;;;1707654;29;20233;-71
2022/03/21 06:05:55;;;;;;;15.30;13.80;;;6.20;97.20;;;;;;1707694;29;20198;-71
2022/03/21 06:06:46;;;;;;;15.55;13.95;;;6.20;97.20;;;;;;1707773;29;20241;-71
2022/03/21 06:07:38;;;;;;;15.88;14.27;;;6.30;97.20;;;;;;1711560;28;20212;-71
2022/03/21 06:08:29;;;;;;;15.20;13.70;;;6.30;97.20;;;;;;1709836;28;20205;-72
2022/03/21 06:09:21;;;;;;;15.63;13.63;;;6.30;97.20;;;;;;1707638;29;20700;-71
2022/03/21 06:10:12;;;;;;;15.27;13.68;;;6.30;97.20;;;;;;1707836;29;20293;-71
2022/03/21 06:11:08;;;;;;;14.68;12.85;;;6.30;97.20;;;;;;1707612;28;20231;-71
2022/03/21 06:11:58;;;;;;;15.85;14.23;;;6.30;97.20;;;;;;1707772;28;20210;-71
2022/03/21 06:12:50;;;;;;;16.13;14.63;;;6.30;97.20;;;;;;1707748;28;20190;-71
2022/03/21 06:13:43;;;;;;;16.23;14.63;;;6.40;97.20;;;;;;1707723;28;20202;-71
2022/03/21 06:14:34;;;;;;;16.05;14.45;;;6.40;97.20;;;;;;1707623;28;20262;-71
2022/03/21 06:15:25;;;;;;;15.85;14.25;;;6.40;97.20;;;;;;1707668;29;20198;-71
2022/03/21 06:16:18;;;;;;;16.20;14.60;;;6.40;97.20;;;;;;1707538;28;20668;-71
2022/03/21 06:17:09;;;;;;;16.25;14.48;;;6.40;97.20;;;;;;1714377;28;20308;-71
2022/03/21 06:18:02;;;;;;;16.20;14.55;;;6.40;97.20;;;;;;1714136;28;20615;-71
2022/03/21 06:18:53;;;;;;;16.02;14.32;;;6.40;97.20;;;;;;1714340;28;20210;-71
2022/03/21 06:19:45;;;;;;;16.48;14.88;;;6.40;97.20;;;;;;1714220;28;20209;-71
2022/03/21 06:20:37;;;;;;;17.17;15.45;;;6.50;97.20;;;;;;1714372;28;20303;-71
2022/03/21 06:21:28;;;;;;;16.25;14.65;;;6.50;97.20;;;;;;1714294;28;20275;-71
2022/03/21 06:22:20;;;;;;;16.75;14.60;;;6.50;97.20;;;;;;1714335;28;20285;-71
2022/03/21 06:23:11;;;;;;;16.88;15.10;;;6.60;97.20;;;;;;1714340;28;20206;-72
2022/03/21 06:24:03;;;;;;;17.03;15.33;;;6.60;97.20;;;;;;1714303;28;20208;-71
2022/03/21 06:24:55;;;;;;;15.65;14.15;;;6.70;97.20;;;;;;1714266;28;20269;-71
2022/03/21 06:25:46;;;;;;;17.65;15.88;;;6.70;97.20;;;;;;1714244;28;20198;-70
2022/03/21 06:26:37;;;;;;;15.65;14.10;;;6.70;97.20;;;;;;1714223;28;20217;-70
2022/03/21 06:27:29;;;;;;;15.67;13.90;;;6.80;97.20;;;;;;1714303;28;20208;-72
2022/03/21 06:28:21;;;;;;;15.75;14.10;;;6.80;97.20;;;;;;1713901;28;20240;-72
2022/03/21 06:29:12;;;;;;;16.65;14.77;;;6.90;97.20;;;;;;1714201;28;20209;-71
2022/03/21 06:30:05;;;;;;;15.57;13.97;;;6.90;97.20;;;;;;1714210;28;20680;-72
2022/03/21 06:30:56;;;;;;;16.27;14.68;;;6.90;97.20;;;;;;1714233;28;20241;-71
2022/03/21 06:31:49;;;;;;;17.23;15.52;;;7.00;97.20;;;;;;1711984;28;20217;-71
2022/03/21 06:32:40;;;;;;;17.02;15.35;;;7.00;97.20;;;;;;1708573;28;20679;-71
2022/03/21 06:33:33;;;;;;;16.50;15.00;;;7.10;97.20;;;;;;1709384;28;20625;-71
2022/03/21 06:34:23;;;;;;;15.68;14.05;;;7.10;97.20;;;;;;1707584;28;20697;-71
2022/03/21 06:35:15;;;;;;;17.27;15.60;;;7.10;97.20;;;;;;1711818;28;20206;-71
2022/03/21 06:36:06;;;;;;;16.30;14.70;;;7.20;97.20;;;;;;1713906;28;20248;-71
2022/03/21 06:36:58;;;;;;;16.52;14.82;;;7.20;97.20;;;;;;1711295;28;20765;-71
2022/03/21 06:37:49;;;;;;;16.88;15.18;;;7.20;97.20;;;;;;1707369;29;20209;-71
2022/03/21 06:38:41;;;;;;;16.73;15.07;;;7.20;97.20;;;;;;1706987;29;20198;-71
2022/03/21 06:39:31;;;;;;;16.58;14.98;;;7.30;97.20;;;;;;1707412;29;20666;-71
2022/03/21 06:40:25;;;;;;;18.03;15.87;;;7.30;97.20;;;;;;1707394;28;20689;-71
2022/03/21 06:41:16;;;;;;;19.98;17.38;;;7.40;97.20;;;;;;1713809;28;20233;-71
2022/03/21 06:42:08;;;;;;;20.70;17.80;;;7.40;97.20;;;;;;1714077;28;20248;-71
2022/03/21 06:43:00;;;;;;;22.13;19.90;;;7.40;97.20;;;;;;1714034;28;20519;-71
2022/03/21 06:43:51;;;;;;;24.15;21.35;;;7.50;97.20;;;;;;1714150;28;20204;-71
2022/03/21 06:44:42;;;;;;;22.20;19.85;;;7.50;97.20;;;;;;1713993;28;20222;-71
2022/03/21 06:45:34;;;;;;;22.52;20.15;;;7.60;97.20;;;;;;1714033;28;20276;-71
2022/03/21 06:46:25;;;;;;;21.10;18.23;;;7.70;97.20;;;;;;1712286;28;20225;-71
2022/03/21 06:47:19;;;;;;;20.50;18.50;;;7.70;97.20;;;;;;1707398;28;20221;-72
2022/03/21 06:48:09;;;;;;;21.92;19.20;;;7.70;97.20;;;;;;1707214;29;20230;-71
2022/03/21 06:49:01;;;;;;;20.17;18.03;;;7.80;97.20;;;;;;1707489;29;20209;-72
2022/03/21 06:49:52;;;;;;;20.15;18.10;;;7.80;97.20;;;;;;1707321;29;20628;-71
2022/03/21 06:50:46;;;;;;;19.45;16.85;;;7.90;97.20;;;;;;1707245;29;20257;-71
2022/03/21 06:51:36;;;;;;;20.00;18.00;;;7.90;97.20;;;;;;1707353;29;20202;-71
2022/03/21 06:52:28;;;;;;;20.03;16.50;;;8.00;97.20;;;;;;1707331;28;20199;-71
2022/03/21 06:53:19;;;;;;;19.98;17.05;;;8.00;97.20;;;;;;1707344;29;20206;-71
2022/03/21 06:54:11;;;;;;;19.98;17.67;;;8.00;97.20;;;;;;1707330;29;20199;-71
2022/03/21 06:55:02;;;;;;;20.42;18.33;;;8.10;97.20;;;;;;1707299;29;20214;-71
2022/03/21 06:55:53;;;;;;;21.80;17.47;;;8.10;97.20;;;;;;1707336;29;20808;-72
2022/03/21 06:56:44;;;;;;;19.23;17.25;;;8.20;97.20;;;;;;1707281;29;20449;-71
2022/03/21 06:57:36;;;;;;;19.30;17.40;;;8.20;97.20;;;;;;1707335;29;20206;-71
2022/03/21 06:58:27;;;;;;;22.42;17.73;;;8.30;97.20;;;;;;1706939;29;20254;-71
2022/03/21 06:59:19;;;;;;;20.48;17.30;;;8.30;97.20;;;;;;1707234;29;20285;-71
2022/03/21 07:00:13;;;;;;;18.63;16.63;;;8.40;97.20;;;;;;1707306;29;20744;-71
2022/03/21 07:01:05;;;;;;;21.50;16.45;;;8.50;97.20;;;;;;1704638;28;20310;-72
2022/03/21 07:01:56;;;;;;;17.52;15.40;;;8.50;97.20;;;;;;1706908;28;20233;-71
2022/03/21 07:02:49;;;;;;;18.67;16.63;;;8.60;97.20;;;;;;1709730;28;20209;-71
2022/03/21 07:03:40;;;;;;;18.33;14.90;;;8.60;97.20;;;;;;1707248;28;20210;-71
2022/03/21 07:04:32;;;;;;;17.40;15.80;;;8.70;97.20;;;;;;1707216;29;20225;-71
2022/03/21 07:05:26;;;;;;;17.05;15.35;;;8.70;97.20;;;;;;1712716;28;20197;-71
2022/03/21 07:06:17;;;;;;;15.77;14.18;;;8.80;97.20;;;;;;1709212;28;20208;-71
2022/03/21 07:07:09;;;;;;;16.35;14.65;;;8.90;97.20;;;;;;1707212;29;20208;-71
2022/03/21 07:08:00;;;;;;;17.63;14.80;;;8.90;97.20;;;;;;1707190;29;20631;-72
2022/03/21 07:08:52;;;;;;;18.95;16.13;;;9.00;97.20;;;;;;1707169;29;20654;-72
2022/03/21 07:09:43;;;;;;;15.55;13.98;;;9.00;97.20;;;;;;1706607;29;20320;-71
2022/03/21 07:10:35;;;;;;;17.50;15.07;;;9.00;97.20;;;;;;1706714;28;20255;-71
2022/03/21 07:11:25;;;;;;;16.10;14.57;;;9.10;97.20;;;;;;1706526;28;20203;-71
2022/03/21 07:12:18;;;;;;;17.17;15.37;;;9.10;97.20;;;;;;1706624;29;20205;-72
2022/03/21 07:13:09;;;;;;;14.68;13.27;;;9.20;97.20;;;;;;1706698;29;20929;-75
2022/03/21 07:14:01;;;;;;;18.25;15.10;;;9.20;97.20;;;;;;1706573;29;20578;-72
2022/03/21 07:14:52;;;;;;;18.30;14.50;;;9.30;97.20;;;;;;1706598;29;20237;-72
2022/03/21 07:15:44;;;;;;;16.03;14.43;;;9.30;97.20;;;;;;1707193;29;20746;-72
2022/03/21 07:16:35;;;;;;;15.25;13.65;;;9.30;97.20;;;;;;1707176;29;20977;-72
2022/03/21 07:17:26;;;;;;;15.90;13.93;;;9.40;97.20;;;;;;1707099;29;20249;-71
2022/03/21 07:18:18;;;;;;;15.50;14.00;;;9.50;97.20;;;;;;1706864;29;20972;-72
2022/03/21 07:19:10;;;;;;;16.45;14.75;;;9.50;97.20;;;;;;1707388;28;20202;-71
2022/03/21 07:20:02;;;;;;;14.98;13.48;;;9.60;97.20;;;;;;1707193;29;20210;-72
2022/03/21 07:20:55;;;;;;;16.20;14.50;;;9.60;97.20;;;;;;1707167;29;20207;-72
2022/03/21 07:21:46;;;;;;;16.33;14.63;;;9.70;97.20;;;;;;1707197;29;20234;-72
2022/03/21 07:22:38;;;;;;;14.70;13.18;;;9.70;97.20;;;;;;1707231;29;20716;-72
2022/03/21 07:23:30;;;;;;;15.32;13.73;;;9.80;97.20;;;;;;1707167;29;20245;-71
2022/03/21 07:24:20;;;;;;;14.98;13.38;;;9.80;97.20;;;;;;1707108;29;20253;-72
2022/03/21 07:25:12;;;;;;;15.03;13.53;;;9.80;97.20;;;;;;1707216;29;20198;-72
2022/03/21 07:26:03;;;;;;;15.45;13.82;;;9.90;97.20;;;;;;1707157;29;20698;-72
2022/03/21 07:26:55;;;;;;;16.90;15.10;;;10.00;97.20;;;;;;1707254;29;20221;-72
2022/03/21 07:27:46;;;;;;;15.80;14.00;;;10.00;97.20;;;;;;1706750;29;20555;-72
2022/03/21 07:28:37;;;;;;;15.75;14.10;;;10.10;97.20;;;;;;1706385;29;20198;-72
2022/03/21 07:29:28;;;;;;;15.45;13.80;;;10.10;97.10;;;;;;1707022;29;20249;-72
2022/03/21 07:30:20;;;;;;;17.90;14.80;;;10.20;96.60;;;;;;1708885;28;20232;-72
2022/03/21 07:31:11;;;;;;;14.65;13.05;;;10.30;96.20;;;;;;1713843;28;20206;-72
2022/03/21 07:32:03;;;;;;;15.40;13.80;;;10.30;96.20;;;;;;1713782;28;20202;-72
2022/03/21 07:32:54;;;;;;;14.63;13.05;;;10.40;96.20;;;;;;1713972;28;20511;-72
2022/03/21 07:33:47;;;;;;;16.10;13.50;;;10.40;95.60;;;;;;1713813;28;20252;-72
2022/03/21 07:34:38;;;;;;;17.92;14.15;;;10.50;95.70;;;;;;1713657;28;20225;-72
2022/03/21 07:35:30;;;;;;;20.43;15.30;;;10.60;95.80;;;;;;1713779;28;20256;-72
2022/03/21 07:36:21;;;;;;;16.00;14.00;;;10.70;95.40;;;;;;1713872;28;20487;-72
2022/03/21 07:37:13;;;;;;;15.23;13.20;;;10.70;94.90;;;;;;1713821;28;20696;-72
2022/03/21 07:38:03;;;;;;;15.27;13.65;;;10.80;94.80;;;;;;1713521;28;20241;-72
2022/03/21 07:38:56;;;;;;;14.03;12.63;;;10.80;94.90;;;;;;1714257;28;20208;-72
2022/03/21 07:39:47;;;;;;;15.27;13.68;;;10.90;94.90;;;;;;1713745;28;20248;-72
2022/03/21 07:40:38;;;;;;;18.27;15.43;;;11.00;94.80;;;;;;1713736;28;20256;-72
2022/03/21 07:41:30;;;;;;;15.40;13.90;;;11.00;94.90;;;;;;1713784;28;20470;-72
2022/03/21 07:42:21;;;;;;;19.52;14.68;;;11.10;95.00;;;;;;1713821;28;20201;-72
2022/03/21 07:43:13;;;;;;;18.30;15.30;;;11.20;95.30;;;;;;1713852;28;20202;-72
2022/03/21 07:44:04;;;;;;;16.17;14.57;;;11.30;95.60;;;;;;1711703;28;20262;-72
2022/03/21 07:47:21;;;;;;;15.82;14.23;;;11.50;94.10;;;;;;1707296;29;20567;-72
2022/03/21 07:48:13;;;;;;;17.30;15.50;;;11.60;93.70;;;;;;1706804;28;20206;-72
2022/03/21 07:49:05;;;;;;;15.55;13.98;;;11.70;93.20;;;;;;1707059;29;20229;-72
2022/03/21 07:49:57;;;;;;;15.50;13.90;;;11.70;93.20;;;;;;1707138;28;20214;-72
2022/03/21 07:50:48;;;;;;;15.13;13.63;;;11.70;93.20;;;;;;1707118;29;20241;-72
2022/03/21 07:51:43;;;;;;;15.33;13.73;;;11.80;93.00;;;;;;1707172;28;20647;-72
2022/03/21 07:52:33;;;;;;;16.20;14.50;;;11.80;93.10;;;;;;1708614;29;20341;-72
2022/03/21 07:53:25;;;;;;;16.40;14.73;;;11.90;93.30;;;;;;1708400;29;20206;-72
2022/03/21 07:54:16;;;;;;;14.88;13.38;;;12.00;93.70;;;;;;1708364;29;20532;-72
2022/03/21 07:55:09;;;;;;;16.00;14.40;;;12.00;92.80;;;;;;1708463;28;20202;-72
2022/03/21 07:56:00;;;;;;;15.98;14.40;;;12.10;92.50;;;;;;1708405;29;20573;-72
2022/03/21 07:56:51;;;;;;;15.88;14.23;;;12.10;92.30;;;;;;1708471;29;20202;-72
2022/03/21 07:57:42;;;;;;;17.10;15.30;;;12.20;92.30;;;;;;1708441;29;20241;-72
2022/03/21 07:58:34;;;;;;;16.10;14.27;;;12.30;92.00;;;;;;1708095;29;20693;-72
2022/03/21 07:59:25;;;;;;;17.33;15.52;;;12.30;91.50;;;;;;1708233;29;20477;-72
2022/03/21 08:00:17;;;;;;;15.80;14.20;;;12.30;91.50;;;;;;1709499;28;20226;-72
2022/03/21 08:01:08;;;;;;;16.10;14.60;;;12.40;91.70;;;;;;1708323;28;20210;-72
2022/03/21 08:01:59;;;;;;;16.13;14.53;;;12.50;91.70;;;;;;1708421;29;20210;-72
2022/03/21 08:02:51;;;;;;;17.25;13.88;;;12.60;91.40;;;;;;1708366;29;20209;-72
2022/03/21 08:03:43;;;;;;;15.50;13.98;;;12.60;91.20;;;;;;1708360;29;20586;-72
2022/03/21 08:04:36;;;;;;;21.27;14.88;;;12.70;91.20;;;;;;1708384;29;20223;-72
2022/03/21 08:05:28;;;;;;;16.77;15.07;;;12.80;91.10;;;;;;1708419;28;20249;-72
2022/03/21 08:06:19;;;;;;;15.77;14.07;;;12.90;91.20;;;;;;1708393;29;20209;-72
2022/03/21 08:07:10;;;;;;;16.60;14.90;;;13.00;90.70;;;;;;1708391;29;20674;-72
2022/03/21 08:08:02;;;;;;;15.93;14.30;;;13.10;90.50;;;;;;1708125;28;20565;-72
2022/03/21 08:08:54;;;;;;;17.25;14.77;;;13.20;90.50;;;;;;1708309;29;20282;-72
2022/03/21 08:09:47;;;;;;;17.13;15.32;;;13.30;90.20;;;;;;1708338;29;20234;-72
2022/03/21 08:10:38;;;;;;;15.68;13.85;;;13.30;90.00;;;;;;1708424;28;20263;-72
2022/03/21 08:11:30;;;;;;;16.70;15.00;;;13.40;90.20;;;;;;1708342;29;20253;-72
2022/03/21 08:12:20;;;;;;;16.42;14.45;;;13.50;89.70;;;;;;1708364;29;20209;-72
2022/03/21 08:13:13;;;;;;;16.60;15.00;;;13.60;89.70;;;;;;1708524;28;20202;-72
2022/03/21 08:14:04;;;;;;;17.60;15.80;;;13.70;89.60;;;;;;1711233;28;20212;-72
2022/03/21 08:14:59;;;;;;;16.43;14.83;;;13.70;89.40;;;;;;1714934;28;20561;-72
2022/03/21 08:15:50;;;;;;;16.67;14.98;;;13.80;88.90;;;;;;1714975;28;20571;-72
2022/03/21 08:16:42;;;;;;;18.55;15.73;;;13.80;88.80;;;;;;1715104;28;20938;-72
2022/03/21 08:17:36;;;;;;;16.75;14.63;;;13.90;89.00;;;;;;1715178;28;20689;-72
2022/03/21 08:18:28;;;;;;;17.02;14.65;;;14.00;89.50;;;;;;1714598;28;20578;-72
2022/03/21 08:19:20;;;;;;;16.27;14.60;;;14.10;89.00;;;;;;1714931;28;20243;-72
2022/03/21 08:20:14;;;;;;;16.65;15.05;;;14.20;88.80;;;;;;1715077;28;20641;-72
2022/03/21 08:21:05;;;;;;;16.33;14.30;;;14.40;88.90;;;;;;1714900;28;20353;-72
2022/03/21 08:21:56;;;;;;;19.77;14.97;;;14.50;88.80;;;;;;1714962;28;20225;-72
2022/03/21 08:22:47;;;;;;;16.63;14.05;;;14.60;88.70;;;;;;1714888;28;20235;-72
2022/03/21 08:23:39;;;;;;;19.73;15.00;;;14.70;88.10;;;;;;1715007;28;20201;-72
2022/03/21 08:24:33;;;;;;;16.52;14.45;;;14.80;87.10;;;;;;1714838;28;20210;-72
2022/03/21 08:25:26;;;;;;;19.60;14.85;;;14.80;86.60;;;;;;1714938;28;20592;-72
2022/03/21 08:26:18;;;;;;;18.10;15.52;;;14.90;86.50;;;;;;1715013;28;20790;-72
2022/03/21 08:27:08;;;;;;;16.60;14.25;;;14.90;86.10;;;;;;1714960;28;20670;-72
2022/03/21 08:28:00;;;;;;;18.07;15.33;;;15.00;85.90;;;;;;1714910;28;20657;-72
2022/03/21 08:28:52;;;;;;;22.02;14.95;;;15.10;86.00;;;;;;1714882;28;20205;-72
2022/03/21 08:29:43;;;;;;;16.33;14.65;;;15.20;86.00;;;;;;1714823;28;20257;-72
2022/03/21 08:30:35;;;;;;;17.67;15.87;;;15.20;85.80;;;;;;1708731;28;20194;-72
2022/03/21 08:31:26;;;;;;;17.02;15.23;;;15.30;85.70;;;;;;1708224;29;20202;-72
2022/03/21 08:32:18;;;;;;;16.67;14.87;;;15.40;85.60;;;;;;1708341;29;20294;-72
2022/03/21 08:33:11;;;;;;;15.95;14.45;;;15.50;85.30;;;;;;1708195;29;20202;-72
2022/03/21 08:34:03;;;;;;;17.20;15.38;;;15.60;85.00;;;;;;1708142;29;20206;-72
2022/03/21 08:34:55;;;;;;;16.38;14.68;;;15.60;84.80;;;;;;1708185;29;20211;-72
2022/03/21 08:35:47;;;;;;;18.60;15.70;;;15.70;85.00;;;;;;1708224;29;20198;-72
2022/03/21 08:36:39;;;;;;;17.13;14.98;;;15.80;85.00;;;;;;1708195;29;20210;-72
2022/03/21 08:37:29;;;;;;;16.88;14.80;;;15.80;84.50;;;;;;1708132;29;20214;-72
2022/03/21 08:38:21;;;;;;;17.63;15.63;;;15.90;84.20;;;;;;1707886;29;20202;-72
2022/03/21 08:39:13;;;;;;;18.17;16.38;;;16.00;84.10;;;;;;1708170;29;20326;-72
2022/03/21 08:40:06;;;;;;;18.25;16.40;;;16.10;83.70;;;;;;1708285;29;20206;-72
2022/03/21 08:40:58;;;;;;;16.75;15.15;;;16.10;83.70;;;;;;1708120;29;20209;-72
2022/03/21 08:41:50;;;;;;;19.17;16.60;;;16.20;83.60;;;;;;1708078;29;20321;-72
2022/03/21 08:42:41;;;;;;;18.80;16.55;;;16.20;83.50;;;;;;1708171;29;20587;-72
2022/03/21 08:43:32;;;;;;;18.30;16.25;;;16.30;83.40;;;;;;1708153;29;20294;-72
2022/03/21 08:44:23;;;;;;;20.10;16.50;;;16.40;83.50;;;;;;1708167;29;20599;-72
2022/03/21 08:45:15;;;;;;;17.37;15.67;;;16.50;83.30;;;;;;1708247;29;20571;-72
2022/03/21 08:46:06;;;;;;;19.17;15.38;;;16.60;82.80;;;;;;1708164;28;20264;-72
2022/03/21 08:46:58;;;;;;;17.30;15.57;;;16.60;82.50;;;;;;1713670;28;20225;-72
2022/03/21 08:47:50;;;;;;;18.05;16.08;;;16.70;82.70;;;;;;1714772;28;20229;-72
2022/03/21 08:49:51;;;;;;;18.35;16.45;;;16.80;82.80;;;;;;1714857;28;20209;-72
2022/03/21 08:50:42;;;;;;;17.20;15.50;;;16.90;82.20;;;;;;1714751;28;20226;-72
2022/03/21 08:51:37;;;;;;;17.85;16.05;;;17.00;81.90;;;;;;1714888;28;20619;-72
2022/03/21 08:52:28;;;;;;;19.77;16.88;;;17.10;81.80;;;;;;1714852;28;20206;-72
2022/03/21 08:53:19;;;;;;;18.70;16.70;;;17.20;81.90;;;;;;1714779;28;20202;-72
2022/03/21 08:54:11;;;;;;;18.35;16.52;;;17.30;82.10;;;;;;1714761;28;20237;-72
2022/03/21 08:55:04;;;;;;;16.60;15.00;;;17.50;82.30;;;;;;1714670;28;20201;-72
2022/03/21 08:55:55;;;;;;;16.77;14.95;;;17.60;82.00;;;;;;1714751;28;20209;-72
2022/03/21 08:56:47;;;;;;;17.10;15.50;;;17.80;81.70;;;;;;1714699;28;20249;-72
2022/03/21 08:57:40;;;;;;;17.98;15.95;;;18.00;81.60;;;;;;1714693;28;20204;-72
2022/03/21 08:58:31;;;;;;;17.25;15.65;;;18.10;81.10;;;;;;1714446;28;20250;-73
2022/03/21 08:59:23;;;;;;;16.00;14.50;;;18.20;80.20;;;;;;1714619;28;20209;-72
2022/03/21 09:00:14;;;;;;;16.45;14.77;;;18.30;79.70;;;;;;1714792;28;20488;-73
2022/03/21 09:01:06;;;;;;;16.67;15.07;;;18.40;79.30;;;;;;1714635;28;20197;-72
2022/03/21 09:01:57;;;;;;;17.38;15.63;;;18.60;78.90;;;;;;1714704;28;20269;-72
2022/03/21 09:02:51;;;;;;;17.00;15.40;;;19.10;78.60;;;;;;1713301;28;20201;-72
2022/03/21 09:03:42;;;;;;;16.55;14.85;;;19.80;78.00;;;;;;1707045;29;20277;-72
2022/03/21 09:04:34;;;;;;;17.53;15.73;;;20.30;77.10;;;;;;1707979;29;20218;-72
2022/03/21 09:05:24;;;;;;;17.23;15.45;;;20.80;76.50;;;;;;1707948;29;20214;-72
2022/03/21 09:06:17;;;;;;;16.50;14.90;;;21.40;76.20;;;;;;1708024;29;20212;-72
2022/03/21 09:07:09;;;;;;;17.40;15.80;;;22.20;75.40;;;;;;1707959;29;20232;-72
2022/03/21 09:08:01;;;;;;;17.90;16.10;;;23.20;73.70;;;;;;1707961;29;20268;-72
2022/03/21 09:08:52;;;;;;;17.80;15.90;;;24.20;71.80;;;;;;1707992;29;20203;-73
2022/03/21 09:09:43;;;;;;;19.47;17.50;;;25.10;70.40;;;;;;1707862;29;20254;-72
2022/03/21 09:10:34;;;;;;;16.67;15.15;;;26.10;69.20;;;;;;1708038;29;20259;-72
2022/03/21 09:11:27;;;;;;;18.47;14.97;;;27.00;68.00;;;;;;1708060;28;20662;-72
2022/03/21 09:12:18;;;;;;;16.83;15.23;;;27.90;67.20;;;;;;1708006;29;20209;-73
2022/03/21 09:13:09;;;;;;;17.92;16.10;;;28.70;65.50;;;;;;1707963;29;20210;-72
2022/03/21 09:14:01;;;;;;;17.10;15.50;;;29.40;64.20;;;;;;1707998;29;20210;-73
2022/03/21 09:14:52;;;;;;;16.58;14.82;;;30.20;63.20;;;;;;1707822;29;20273;-73
2022/03/21 09:15:44;;;;;;;17.00;15.30;;;30.90;62.30;;;;;;1707988;29;20206;-73
2022/03/21 09:16:36;;;;;;;19.40;17.23;;;31.60;60.90;;;;;;1708075;29;20812;-73
2022/03/21 09:17:28;;;;;;;17.33;15.68;;;32.10;59.80;;;;;;1707915;29;20205;-73
2022/03/21 09:18:19;;;;;;;17.45;15.60;;;32.60;58.90;;;;;;1707617;29;20202;-73
2022/03/21 09:19:11;;;;;;;17.43;15.80;;;33.00;57.70;;;;;;1711181;28;20197;-73
2022/03/21 09:20:02;;;;;;;17.67;16.08;;;33.40;57.50;;;;;;1714465;28;20202;-73
2022/03/21 09:20:54;;;;;;;17.58;15.88;;;33.60;56.50;;;;;;1714667;28;20204;-73
2022/03/21 09:21:44;;;;;;;16.58;14.98;;;33.80;56.50;;;;;;1714451;28;20700;-73
2022/03/21 09:22:37;;;;;;;16.30;14.70;;;33.90;56.50;;;;;;1714620;28;20727;-73
2022/03/21 09:23:28;;;;;;;18.90;16.92;;;33.90;56.00;;;;;;1714553;28;20237;-73
2022/03/21 09:24:20;;;;;;;16.50;14.93;;;33.90;56.10;;;;;;1714547;28;20220;-73
2022/03/21 09:25:12;;;;;;;17.90;16.17;;;33.80;55.50;;;;;;1714625;28;20237;-73
2022/03/21 09:26:05;;;;;;;16.80;15.30;;;33.60;55.30;;;;;;1714476;28;20565;-73
2022/03/21 09:26:57;;;;;;;17.02;15.52;;;33.50;55.60;;;;;;1714868;28;20295;-73
2022/03/21 09:27:47;;;;;;;18.02;16.42;;;33.50;55.30;;;;;;1714517;28;20661;-73
2022/03/21 09:28:40;;;;;;;17.00;15.37;;;33.60;55.40;;;;;;1714327;28;20657;-73
2022/03/21 09:29:31;;;;;;;18.40;15.82;;;33.90;55.20;;;;;;1714454;28;20213;-73
2022/03/21 09:30:23;;;;;;;17.60;15.83;;;34.10;54.70;;;;;;1714538;28;20205;-73
2022/03/21 09:31:15;;;;;;;17.23;15.35;;;34.40;54.40;;;;;;1714617;28;20449;-73
2022/03/21 09:32:07;;;;;;;17.85;16.25;;;34.70;54.10;;;;;;1714517;28;20616;-73
2022/03/21 09:32:58;;;;;;;16.70;15.20;;;35.10;53.60;;;;;;1714515;28;20233;-73
2022/03/21 09:33:50;;;;;;;16.90;15.33;;;35.60;53.60;;;;;;1714654;28;20202;-73
2022/03/21 09:34:43;;;;;;;17.00;15.18;;;36.00;53.20;;;;;;1714130;28;20740;-73
2022/03/21 09:35:34;;;;;;;17.67;15.90;;;36.60;53.20;;;;;;1713241;28;20202;-73
2022/03/21 09:36:25;;;;;;;17.00;15.60;;;37.10;52.70;;;;;;1714508;28;20200;-73
2022/03/21 09:37:16;;;;;;;16.17;14.75;;;37.70;52.60;;;;;;1714465;28;20484;-73
2022/03/21 09:38:09;;;;;;;16.00;14.50;;;38.20;52.40;;;;;;1714213;28;20213;-73
2022/03/21 09:39:00;;;;;;;18.13;16.52;;;38.70;51.60;;;;;;1714419;28;20703;-73
2022/03/21 09:39:52;;;;;;;17.47;15.77;;;39.20;51.20;;;;;;1714487;28;20855;-73
2022/03/21 09:40:44;;;;;;;17.42;15.93;;;39.60;50.60;;;;;;1714409;28;20256;-73
2022/03/21 09:41:36;;;;;;;18.02;16.40;;;40.00;49.70;;;;;;1714477;28;20233;-73
2022/03/21 09:42:29;;;;;;;17.15;15.55;;;40.10;49.00;;;;;;1714382;28;20639;-73
2022/03/21 09:43:20;;;;;;;17.58;16.13;;;40.30;49.00;;;;;;1714428;28;20206;-73
2022/03/21 09:44:12;;;;;;;18.03;16.40;;;40.50;48.60;;;;;;1714476;28;20212;-73
2022/03/21 09:45:04;;;;;;;16.33;14.93;;;40.60;48.10;;;;;;1714421;28;20486;-73
2022/03/21 09:45:57;;;;;;;16.93;15.37;;;40.70;47.80;;;;;;1714496;28;20460;-73
2022/03/21 09:46:49;;;;;;;17.63;16.03;;;40.90;47.50;;;;;;1714446;28;20488;-74
2022/03/21 09:48:57;;;;;;;17.90;16.20;;;41.40;47.30;;;;;;1714563;28;20491;-73
2022/03/21 09:49:48;;;;;;;19.00;16.93;;;41.70;47.00;;;;;;1714268;28;20504;-73
2022/03/21 09:50:42;;;;;;;18.10;16.40;;;41.90;46.60;;;;;;1714409;28;20858;-73
2022/03/21 09:51:34;;;;;;;16.73;15.23;;;42.10;46.40;;;;;;1712804;28;20930;-73
2022/03/21 09:52:25;;;;;;;17.37;16.00;;;42.20;46.20;;;;;;1714339;28;20456;-73
2022/03/21 09:53:18;;;;;;;17.07;15.67;;;42.30;46.10;;;;;;1714500;28;20541;-74
2022/03/21 09:54:10;;;;;;;18.50;17.00;;;42.30;45.80;;;;;;1714374;28;20473;-74
2022/03/21 09:55:02;;;;;;;17.57;16.07;;;42.40;45.70;;;;;;1714316;28;20845;-73
2022/03/21 09:55:54;;;;;;;17.67;16.17;;;42.60;45.80;;;;;;1714373;28;20944;-73
2022/03/21 09:56:45;;;;;;;17.67;15.90;;;42.90;45.60;;;;;;1714326;28;20445;-73
2022/03/21 09:57:37;;;;;;;16.57;15.23;;;43.10;45.20;;;;;;1714308;28;20452;-74
2022/03/21 09:58:30;;;;;;;17.93;16.40;;;43.40;45.10;;;;;;1714069;28;20225;-74
2022/03/21 09:59:23;;;;;;;17.80;16.30;;;43.60;44.70;;;;;;1714123;28;20456;-74
2022/03/21 10:00:14;;;;;;;16.33;14.87;;;43.60;44.30;;;;;;1714451;28;20449;-74
2022/03/21 10:01:06;;;;;;;18.10;16.40;;;43.50;44.40;;;;;;1714280;28;20429;-74
2022/03/21 10:01:58;;;;;;;17.73;15.97;;;43.50;44.50;;;;;;1714330;28;20565;-74
2022/03/21 10:02:49;;;;;;;17.27;15.77;;;43.40;44.60;;;;;;1714238;28;21007;-74
2022/03/21 10:03:41;;;;;;;17.93;16.43;;;43.30;44.50;;;;;;1714279;28;20473;-74
2022/03/21 10:04:32;;;;;;;17.20;15.60;;;43.20;44.50;;;;;;1714238;28;20470;-74
2022/03/21 10:05:33;;;;;;;18.00;16.50;;;43.10;44.40;;;;;;1714305;28;20449;-74
2022/03/21 10:06:29;;;;;;;18.57;17.00;;;42.70;44.00;;;;;;1714224;28;20441;-74
2022/03/21 10:07:24;;;;;;;18.37;16.77;;;41.90;44.20;;;;;;1714220;28;20449;-74
2022/03/21 10:08:21;;;;;;;18.00;16.40;;;41.00;44.50;;;;;;1712349;28;20484;-74
2022/03/21 10:09:13;;;;;;;17.40;15.93;;;40.30;44.80;;;;;;1714406;28;21018;-74
2022/03/21 10:10:08;;;;;;;18.13;16.60;;;39.90;45.20;;;;;;1714275;28;20445;-74
2022/03/21 10:11:03;;;;;;;17.43;15.93;;;39.80;45.60;;;;;;1714224;28;20489;-74
2022/03/21 10:11:55;;;;;;;17.73;16.23;;;39.90;45.90;;;;;;1714349;28;20449;-74
2022/03/21 10:12:48;;;;;;;17.63;16.13;;;39.90;46.10;;;;;;1714250;28;20492;-74
2022/03/21 10:13:39;;;;;;;17.87;16.27;;;40.00;46.20;;;;;;1714621;28;20484;-74
2022/03/21 10:14:33;;;;;;;17.83;16.13;;;40.00;46.10;;;;;;1714211;28;20441;-74
2022/03/21 10:15:28;;;;;;;18.20;16.70;;;39.80;46.10;;;;;;1714449;28;20449;-74
2022/03/21 10:16:19;;;;;;;17.37;15.57;;;39.70;46.20;;;;;;1714587;28;20488;-74
2022/03/21 10:17:12;;;;;;;18.10;16.50;;;39.50;46.30;;;;;;1714529;28;20453;-74
2022/03/21 10:18:08;;;;;;;17.93;16.23;;;39.20;46.40;;;;;;1714103;28;20528;-74
2022/03/21 10:19:00;;;;;;;19.50;17.90;;;38.90;46.70;;;;;;1714405;28;20446;-74
2022/03/21 10:19:53;;;;;;;19.20;17.50;;;38.40;46.60;;;;;;1714428;28;20968;-74
2022/03/21 10:20:44;;;;;;;17.43;15.93;;;37.90;47.00;;;;;;1714323;28;20456;-74
2022/03/21 10:21:36;;;;;;;19.57;17.80;;;37.30;47.30;;;;;;1713844;28;20999;-74
2022/03/21 10:22:37;;;;;;;19.33;17.43;;;36.70;47.70;;;;;;1707542;28;20625;-74
2022/03/21 10:23:33;;;;;;;19.17;17.57;;;36.00;47.90;;;;;;1707613;28;20450;-74
2022/03/21 10:24:25;;;;;;;19.33;17.43;;;35.50;48.30;;;;;;1707309;29;20965;-74
2022/03/21 10:25:21;;;;;;;19.93;17.93;;;35.20;49.00;;;;;;1707460;29;20467;-74
2022/03/21 10:26:26;;;;;;;20.63;18.53;;;35.20;49.30;;;;;;1707582;29;20454;-73
2022/03/21 10:27:30;;;;;;;19.73;17.93;;;35.40;49.50;;;;;;1707561;29;20442;-74
2022/03/21 10:28:34;;;;;;;18.63;16.83;;;35.60;48.80;;;;;;1707150;29;20779;-74
2022/03/21 10:29:26;;;;;;;20.07;17.83;;;36.10;49.00;;;;;;1707351;29;20450;-74
2022/03/21 10:30:24;;;;;;;19.63;17.87;;;36.50;48.80;;;;;;1707554;28;20796;-74